sensor_id;sensor_type;location;lat;lon;timestamp;P1;durP1;ratioP1;P2;durP2;ratioP2
68608;SDS011;55581;46.718;7.690;2023-09-30T00:01:43;11.55;;;3.78;;
68608;SDS011;55581;46.718;7.690;2023-09-30T00:04:09;14.20;;;3.75;;
68608;SDS011;55581;46.718;7.690;2023-09-30T00:06:37;13.77;;;3.67;;
68608;SDS011;55581;46.718;7.690;2023-09-30T00:09:02;10.27;;;3.43;;
68608;SDS011;55581;46.718;7.690;2023-09-30T00:11:32;12.75;;;3.53;;
68608;SDS011;55581;46.718;7.690;2023-09-30T00:14:00;9.63;;;3.40;;
68608;SDS011;55581;46.718;7.690;2023-09-30T00:16:26;13.23;;;3.67;;
68608;SDS011;55581;46.718;7.690;2023-09-30T00:18:53;10.73;;;3.30;;
68608;SDS011;55581;46.718;7.690;2023-09-30T00:21:19;11.63;;;3.13;;
68608;SDS011;55581;46.718;7.690;2023-09-30T00:23:47;11.97;;;3.70;;
68608;SDS011;55581;46.718;7.690;2023-09-30T00:26:12;9.88;;;3.17;;
68608;SDS011;55581;46.718;7.690;2023-09-30T00:28:39;10.43;;;3.50;;
68608;SDS011;55581;46.718;7.690;2023-09-30T00:31:07;13.87;;;4.17;;
68608;SDS011;55581;46.718;7.690;2023-09-30T00:33:36;12.50;;;3.65;;
68608;SDS011;55581;46.718;7.690;2023-09-30T00:36:08;11.40;;;3.63;;
68608;SDS011;55581;46.718;7.690;2023-09-30T00:38:35;10.52;;;3.25;;
68608;SDS011;55581;46.718;7.690;2023-09-30T00:41:01;10.18;;;3.78;;
68608;SDS011;55581;46.718;7.690;2023-09-30T00:43:26;11.77;;;3.60;;
68608;SDS011;55581;46.718;7.690;2023-09-30T00:45:52;10.97;;;3.60;;
68608;SDS011;55581;46.718;7.690;2023-09-30T00:48:29;10.33;;;3.60;;
68608;SDS011;55581;46.718;7.690;2023-09-30T00:50:54;10.95;;;3.60;;
68608;SDS011;55581;46.718;7.690;2023-09-30T00:53:21;11.10;;;3.28;;
68608;SDS011;55581;46.718;7.690;2023-09-30T00:55:49;12.90;;;2.97;;
68608;SDS011;55581;46.718;7.690;2023-09-30T00:58:17;11.95;;;3.75;;
68608;SDS011;55581;46.718;7.690;2023-09-30T01:00:48;13.18;;;3.10;;
68608;SDS011;55581;46.718;7.690;2023-09-30T01:03:13;10.25;;;3.00;;
68608;SDS011;55581;46.718;7.690;2023-09-30T01:05:39;13.27;;;3.15;;
68608;SDS011;55581;46.718;7.690;2023-09-30T01:08:05;10.20;;;3.10;;
68608;SDS011;55581;46.718;7.690;2023-09-30T01:10:30;10.67;;;3.13;;
68608;SDS011;55581;46.718;7.690;2023-09-30T01:12:56;8.47;;;2.93;;
68608;SDS011;55581;46.718;7.690;2023-09-30T01:15:26;13.67;;;3.50;;
68608;SDS011;55581;46.718;7.690;2023-09-30T01:17:54;9.23;;;3.38;;
68608;SDS011;55581;46.718;7.690;2023-09-30T01:20:19;10.27;;;3.93;;
68608;SDS011;55581;46.718;7.690;2023-09-30T01:22:47;13.48;;;3.90;;
68608;SDS011;55581;46.718;7.690;2023-09-30T01:25:12;12.50;;;3.90;;
68608;SDS011;55581;46.718;7.690;2023-09-30T01:27:38;10.80;;;4.00;;
68608;SDS011;55581;46.718;7.690;2023-09-30T01:30:03;9.33;;;2.97;;
68608;SDS011;55581;46.718;7.690;2023-09-30T01:32:35;10.43;;;3.55;;
68608;SDS011;55581;46.718;7.690;2023-09-30T01:35:01;16.27;;;3.53;;
68608;SDS011;55581;46.718;7.690;2023-09-30T01:37:27;10.73;;;3.90;;
68608;SDS011;55581;46.718;7.690;2023-09-30T01:39:55;11.50;;;3.83;;
68608;SDS011;55581;46.718;7.690;2023-09-30T01:42:20;14.03;;;4.23;;
68608;SDS011;55581;46.718;7.690;2023-09-30T01:44:46;10.32;;;4.05;;
68608;SDS011;55581;46.718;7.690;2023-09-30T01:47:11;11.13;;;3.73;;
68608;SDS011;55581;46.718;7.690;2023-09-30T01:49:37;11.77;;;3.97;;
68608;SDS011;55581;46.718;7.690;2023-09-30T01:52:03;9.47;;;3.20;;
68608;SDS011;55581;46.718;7.690;2023-09-30T01:54:29;11.40;;;4.13;;
68608;SDS011;55581;46.718;7.690;2023-09-30T01:56:55;11.52;;;3.80;;
68608;SDS011;55581;46.718;7.690;2023-09-30T01:59:20;11.87;;;3.70;;
68608;SDS011;55581;46.718;7.690;2023-09-30T02:01:46;10.67;;;4.10;;
68608;SDS011;55581;46.718;7.690;2023-09-30T02:04:12;12.18;;;3.88;;
68608;SDS011;55581;46.718;7.690;2023-09-30T02:06:40;10.35;;;4.10;;
68608;SDS011;55581;46.718;7.690;2023-09-30T02:09:06;12.15;;;3.92;;
68608;SDS011;55581;46.718;7.690;2023-09-30T02:11:33;13.05;;;4.57;;
68608;SDS011;55581;46.718;7.690;2023-09-30T02:13:59;11.60;;;3.77;;
68608;SDS011;55581;46.718;7.690;2023-09-30T02:16:24;10.57;;;3.87;;
68608;SDS011;55581;46.718;7.690;2023-09-30T02:18:50;10.50;;;3.97;;
68608;SDS011;55581;46.718;7.690;2023-09-30T02:21:16;12.65;;;4.35;;
68608;SDS011;55581;46.718;7.690;2023-09-30T02:23:42;9.90;;;4.37;;
68608;SDS011;55581;46.718;7.690;2023-09-30T02:26:12;11.15;;;3.75;;
68608;SDS011;55581;46.718;7.690;2023-09-30T02:28:39;10.95;;;3.80;;
68608;SDS011;55581;46.718;7.690;2023-09-30T02:31:04;12.52;;;4.22;;
68608;SDS011;55581;46.718;7.690;2023-09-30T02:33:35;10.83;;;3.70;;
68608;SDS011;55581;46.718;7.690;2023-09-30T02:36:02;14.00;;;4.50;;
68608;SDS011;55581;46.718;7.690;2023-09-30T02:38:30;10.43;;;3.70;;
68608;SDS011;55581;46.718;7.690;2023-09-30T02:40:56;10.00;;;3.17;;
68608;SDS011;55581;46.718;7.690;2023-09-30T02:43:21;11.97;;;4.03;;
68608;SDS011;55581;46.718;7.690;2023-09-30T02:45:49;11.00;;;3.87;;
68608;SDS011;55581;46.718;7.690;2023-09-30T02:48:17;9.57;;;4.15;;
68608;SDS011;55581;46.718;7.690;2023-09-30T02:50:45;12.90;;;4.22;;
68608;SDS011;55581;46.718;7.690;2023-09-30T02:53:11;10.57;;;3.80;;
68608;SDS011;55581;46.718;7.690;2023-09-30T02:55:38;8.98;;;3.35;;
68608;SDS011;55581;46.718;7.690;2023-09-30T02:58:03;13.20;;;3.97;;
68608;SDS011;55581;46.718;7.690;2023-09-30T03:00:32;10.82;;;3.97;;
68608;SDS011;55581;46.718;7.690;2023-09-30T03:02:59;11.73;;;3.50;;
68608;SDS011;55581;46.718;7.690;2023-09-30T03:05:29;9.75;;;3.63;;
68608;SDS011;55581;46.718;7.690;2023-09-30T03:07:58;9.68;;;3.83;;
68608;SDS011;55581;46.718;7.690;2023-09-30T03:10:25;13.35;;;3.60;;
68608;SDS011;55581;46.718;7.690;2023-09-30T03:12:54;11.13;;;3.50;;
68608;SDS011;55581;46.718;7.690;2023-09-30T03:15:27;13.50;;;3.70;;
68608;SDS011;55581;46.718;7.690;2023-09-30T03:17:53;10.23;;;3.58;;
68608;SDS011;55581;46.718;7.690;2023-09-30T03:20:20;11.23;;;4.22;;
68608;SDS011;55581;46.718;7.690;2023-09-30T03:22:46;11.43;;;3.85;;
68608;SDS011;55581;46.718;7.690;2023-09-30T03:25:13;10.57;;;3.95;;
68608;SDS011;55581;46.718;7.690;2023-09-30T03:27:42;10.03;;;3.73;;
68608;SDS011;55581;46.718;7.690;2023-09-30T03:30:11;10.32;;;3.70;;
68608;SDS011;55581;46.718;7.690;2023-09-30T03:32:38;10.57;;;4.03;;
68608;SDS011;55581;46.718;7.690;2023-09-30T03:35:07;10.35;;;3.60;;
68608;SDS011;55581;46.718;7.690;2023-09-30T03:37:35;8.93;;;4.00;;
68608;SDS011;55581;46.718;7.690;2023-09-30T03:40:03;10.85;;;3.45;;
68608;SDS011;55581;46.718;7.690;2023-09-30T03:42:37;12.25;;;3.90;;
68608;SDS011;55581;46.718;7.690;2023-09-30T03:45:04;12.00;;;4.00;;
68608;SDS011;55581;46.718;7.690;2023-09-30T03:47:35;9.32;;;3.53;;
68608;SDS011;55581;46.718;7.690;2023-09-30T03:50:05;9.77;;;4.03;;
68608;SDS011;55581;46.718;7.690;2023-09-30T03:52:38;14.13;;;3.85;;
68608;SDS011;55581;46.718;7.690;2023-09-30T03:55:04;13.90;;;4.68;;
68608;SDS011;55581;46.718;7.690;2023-09-30T03:57:31;9.68;;;3.42;;
68608;SDS011;55581;46.718;7.690;2023-09-30T03:59:58;10.50;;;3.83;;
68608;SDS011;55581;46.718;7.690;2023-09-30T04:02:24;11.30;;;3.85;;
68608;SDS011;55581;46.718;7.690;2023-09-30T04:04:50;9.77;;;4.00;;
68608;SDS011;55581;46.718;7.690;2023-09-30T04:07:18;12.23;;;4.13;;
68608;SDS011;55581;46.718;7.690;2023-09-30T04:09:46;11.73;;;4.05;;
68608;SDS011;55581;46.718;7.690;2023-09-30T04:12:11;9.53;;;3.27;;
68608;SDS011;55581;46.718;7.690;2023-09-30T04:14:37;10.90;;;3.83;;
68608;SDS011;55581;46.718;7.690;2023-09-30T04:17:02;11.55;;;3.60;;
68608;SDS011;55581;46.718;7.690;2023-09-30T04:19:30;9.03;;;3.20;;
68608;SDS011;55581;46.718;7.690;2023-09-30T04:21:55;10.93;;;4.32;;
68608;SDS011;55581;46.718;7.690;2023-09-30T04:24:21;12.70;;;3.63;;
68608;SDS011;55581;46.718;7.690;2023-09-30T04:26:47;10.32;;;3.50;;
68608;SDS011;55581;46.718;7.690;2023-09-30T04:29:17;10.13;;;3.63;;
68608;SDS011;55581;46.718;7.690;2023-09-30T04:31:43;10.73;;;3.40;;
68608;SDS011;55581;46.718;7.690;2023-09-30T04:34:14;11.68;;;3.90;;
68608;SDS011;55581;46.718;7.690;2023-09-30T04:36:40;10.60;;;3.35;;
68608;SDS011;55581;46.718;7.690;2023-09-30T04:39:05;10.90;;;3.87;;
68608;SDS011;55581;46.718;7.690;2023-09-30T04:41:31;11.20;;;4.00;;
68608;SDS011;55581;46.718;7.690;2023-09-30T04:43:56;10.57;;;3.53;;
68608;SDS011;55581;46.718;7.690;2023-09-30T04:46:21;10.47;;;3.73;;
68608;SDS011;55581;46.718;7.690;2023-09-30T04:48:49;11.05;;;3.70;;
68608;SDS011;55581;46.718;7.690;2023-09-30T04:51:17;10.40;;;3.47;;
68608;SDS011;55581;46.718;7.690;2023-09-30T04:53:43;9.87;;;3.63;;
68608;SDS011;55581;46.718;7.690;2023-09-30T04:56:12;11.18;;;3.92;;
68608;SDS011;55581;46.718;7.690;2023-09-30T04:58:38;11.43;;;4.25;;
68608;SDS011;55581;46.718;7.690;2023-09-30T05:01:03;12.33;;;3.80;;
68608;SDS011;55581;46.718;7.690;2023-09-30T05:03:29;12.37;;;4.30;;
68608;SDS011;55581;46.718;7.690;2023-09-30T05:05:56;11.05;;;4.00;;
68608;SDS011;55581;46.718;7.690;2023-09-30T05:08:24;14.37;;;3.93;;
68608;SDS011;55581;46.718;7.690;2023-09-30T05:10:50;9.30;;;3.90;;
68608;SDS011;55581;46.718;7.690;2023-09-30T05:13:20;11.85;;;3.60;;
68608;SDS011;55581;46.718;7.690;2023-09-30T05:15:46;9.55;;;3.47;;
68608;SDS011;55581;46.718;7.690;2023-09-30T05:18:11;11.57;;;3.27;;
68608;SDS011;55581;46.718;7.690;2023-09-30T05:20:37;16.97;;;4.43;;
68608;SDS011;55581;46.718;7.690;2023-09-30T05:23:03;11.90;;;3.60;;
68608;SDS011;55581;46.718;7.690;2023-09-30T05:25:31;15.20;;;4.25;;
68608;SDS011;55581;46.718;7.690;2023-09-30T05:27:56;10.67;;;3.63;;
68608;SDS011;55581;46.718;7.690;2023-09-30T05:30:21;11.57;;;3.90;;
68608;SDS011;55581;46.718;7.690;2023-09-30T05:32:49;11.82;;;3.88;;
68608;SDS011;55581;46.718;7.690;2023-09-30T05:35:17;11.20;;;4.33;;
68608;SDS011;55581;46.718;7.690;2023-09-30T05:37:43;12.13;;;4.60;;
68608;SDS011;55581;46.718;7.690;2023-09-30T05:40:12;9.75;;;4.03;;
68608;SDS011;55581;46.718;7.690;2023-09-30T05:42:52;12.27;;;4.10;;
68608;SDS011;55581;46.718;7.690;2023-09-30T05:45:21;11.50;;;3.53;;
68608;SDS011;55581;46.718;7.690;2023-09-30T05:47:48;9.23;;;4.28;;
68608;SDS011;55581;46.718;7.690;2023-09-30T05:50:17;11.15;;;3.92;;
68608;SDS011;55581;46.718;7.690;2023-09-30T05:52:45;11.13;;;4.13;;
68608;SDS011;55581;46.718;7.690;2023-09-30T05:55:11;10.60;;;3.90;;
68608;SDS011;55581;46.718;7.690;2023-09-30T05:57:36;8.53;;;3.50;;
68608;SDS011;55581;46.718;7.690;2023-09-30T06:00:02;14.00;;;4.33;;
68608;SDS011;55581;46.718;7.690;2023-09-30T06:02:40;9.10;;;3.42;;
68608;SDS011;55581;46.718;7.690;2023-09-30T06:05:05;9.75;;;4.30;;
68608;SDS011;55581;46.718;7.690;2023-09-30T06:07:33;11.10;;;4.20;;
68608;SDS011;55581;46.718;7.690;2023-09-30T06:09:58;9.55;;;4.10;;
68608;SDS011;55581;46.718;7.690;2023-09-30T06:12:30;11.77;;;4.03;;
68608;SDS011;55581;46.718;7.690;2023-09-30T06:14:56;11.77;;;4.43;;
68608;SDS011;55581;46.718;7.690;2023-09-30T06:17:21;11.73;;;4.43;;
68608;SDS011;55581;46.718;7.690;2023-09-30T06:19:47;12.18;;;4.10;;
68608;SDS011;55581;46.718;7.690;2023-09-30T06:22:15;12.23;;;4.13;;
68608;SDS011;55581;46.718;7.690;2023-09-30T06:24:43;11.15;;;4.50;;
68608;SDS011;55581;46.718;7.690;2023-09-30T06:27:08;10.77;;;4.10;;
68608;SDS011;55581;46.718;7.690;2023-09-30T06:29:38;11.25;;;4.20;;
68608;SDS011;55581;46.718;7.690;2023-09-30T06:32:03;13.30;;;4.13;;
68608;SDS011;55581;46.718;7.690;2023-09-30T06:34:29;15.10;;;4.75;;
68608;SDS011;55581;46.718;7.690;2023-09-30T06:36:55;8.98;;;4.10;;
68608;SDS011;55581;46.718;7.690;2023-09-30T06:39:23;9.57;;;4.10;;
68608;SDS011;55581;46.718;7.690;2023-09-30T06:41:48;11.82;;;4.57;;
68608;SDS011;55581;46.718;7.690;2023-09-30T06:44:13;16.50;;;4.57;;
68608;SDS011;55581;46.718;7.690;2023-09-30T06:46:39;12.30;;;3.87;;
68608;SDS011;55581;46.718;7.690;2023-09-30T06:49:06;11.32;;;4.45;;
68608;SDS011;55581;46.718;7.690;2023-09-30T06:51:32;11.47;;;4.13;;
68608;SDS011;55581;46.718;7.690;2023-09-30T06:53:57;12.33;;;4.33;;
68608;SDS011;55581;46.718;7.690;2023-09-30T06:56:22;14.77;;;4.90;;
68608;SDS011;55581;46.718;7.690;2023-09-30T06:58:48;12.60;;;4.57;;
68608;SDS011;55581;46.718;7.690;2023-09-30T07:01:15;12.57;;;4.35;;
68608;SDS011;55581;46.718;7.690;2023-09-30T07:03:42;11.53;;;3.83;;
68608;SDS011;55581;46.718;7.690;2023-09-30T07:06:10;14.63;;;4.25;;
68608;SDS011;55581;46.718;7.690;2023-09-30T07:08:35;13.13;;;4.13;;
68608;SDS011;55581;46.718;7.690;2023-09-30T07:11:01;10.00;;;4.13;;
68608;SDS011;55581;46.718;7.690;2023-09-30T07:13:27;13.33;;;4.70;;
68608;SDS011;55581;46.718;7.690;2023-09-30T07:15:52;12.50;;;4.77;;
68608;SDS011;55581;46.718;7.690;2023-09-30T07:18:17;9.93;;;4.15;;
68608;SDS011;55581;46.718;7.690;2023-09-30T07:20:43;14.50;;;4.97;;
68608;SDS011;55581;46.718;7.690;2023-09-30T07:23:08;14.10;;;5.60;;
68608;SDS011;55581;46.718;7.690;2023-09-30T07:25:34;11.17;;;4.70;;
68608;SDS011;55581;46.718;7.690;2023-09-30T07:28:00;11.47;;;4.80;;
68608;SDS011;55581;46.718;7.690;2023-09-30T07:30:26;11.18;;;4.53;;
68608;SDS011;55581;46.718;7.690;2023-09-30T07:32:51;14.17;;;4.77;;
68608;SDS011;55581;46.718;7.690;2023-09-30T07:35:17;13.53;;;4.60;;
68608;SDS011;55581;46.718;7.690;2023-09-30T07:37:43;13.05;;;4.97;;
68608;SDS011;55581;46.718;7.690;2023-09-30T07:40:12;12.52;;;4.60;;
68608;SDS011;55581;46.718;7.690;2023-09-30T07:42:37;11.00;;;4.45;;
68608;SDS011;55581;46.718;7.690;2023-09-30T07:45:03;12.50;;;4.70;;
68608;SDS011;55581;46.718;7.690;2023-09-30T07:47:29;12.52;;;4.50;;
68608;SDS011;55581;46.718;7.690;2023-09-30T07:49:56;15.63;;;5.18;;
68608;SDS011;55581;46.718;7.690;2023-09-30T07:52:21;13.17;;;4.60;;
68608;SDS011;55581;46.718;7.690;2023-09-30T07:54:47;14.07;;;4.93;;
68608;SDS011;55581;46.718;7.690;2023-09-30T07:57:12;16.23;;;5.15;;
68608;SDS011;55581;46.718;7.690;2023-09-30T07:59:38;14.33;;;4.70;;
68608;SDS011;55581;46.718;7.690;2023-09-30T08:02:03;14.10;;;5.17;;
68608;SDS011;55581;46.718;7.690;2023-09-30T08:04:31;11.73;;;4.53;;
68608;SDS011;55581;46.718;7.690;2023-09-30T08:06:57;13.80;;;4.47;;
68608;SDS011;55581;46.718;7.690;2023-09-30T08:09:23;13.27;;;4.78;;
68608;SDS011;55581;46.718;7.690;2023-09-30T08:11:49;11.27;;;4.45;;
68608;SDS011;55581;46.718;7.690;2023-09-30T08:14:15;11.77;;;4.65;;
68608;SDS011;55581;46.718;7.690;2023-09-30T08:16:41;13.20;;;4.67;;
68608;SDS011;55581;46.718;7.690;2023-09-30T08:19:07;13.60;;;4.28;;
68608;SDS011;55581;46.718;7.690;2023-09-30T08:21:33;11.77;;;5.07;;
68608;SDS011;55581;46.718;7.690;2023-09-30T08:24:01;12.10;;;4.82;;
68608;SDS011;55581;46.718;7.690;2023-09-30T08:26:27;12.68;;;4.60;;
68608;SDS011;55581;46.718;7.690;2023-09-30T08:28:53;13.13;;;4.60;;
68608;SDS011;55581;46.718;7.690;2023-09-30T08:31:20;13.40;;;4.53;;
68608;SDS011;55581;46.718;7.690;2023-09-30T08:33:49;11.95;;;4.53;;
68608;SDS011;55581;46.718;7.690;2023-09-30T08:36:14;14.03;;;5.37;;
68608;SDS011;55581;46.718;7.690;2023-09-30T08:38:40;16.73;;;4.90;;
68608;SDS011;55581;46.718;7.690;2023-09-30T08:41:06;10.55;;;4.30;;
68608;SDS011;55581;46.718;7.690;2023-09-30T08:43:36;11.25;;;4.25;;
68608;SDS011;55581;46.718;7.690;2023-09-30T08:46:04;11.88;;;4.63;;
68608;SDS011;55581;46.718;7.690;2023-09-30T08:48:30;10.47;;;4.67;;
68608;SDS011;55581;46.718;7.690;2023-09-30T08:50:58;13.65;;;4.93;;
68608;SDS011;55581;46.718;7.690;2023-09-30T08:53:24;9.80;;;4.57;;
68608;SDS011;55581;46.718;7.690;2023-09-30T08:55:54;11.70;;;4.60;;
68608;SDS011;55581;46.718;7.690;2023-09-30T08:58:22;13.45;;;5.15;;
68608;SDS011;55581;46.718;7.690;2023-09-30T09:00:49;11.63;;;4.90;;
68608;SDS011;55581;46.718;7.690;2023-09-30T09:03:15;13.18;;;5.10;;
68608;SDS011;55581;46.718;7.690;2023-09-30T09:05:43;12.40;;;5.00;;
68608;SDS011;55581;46.718;7.690;2023-09-30T09:08:08;14.50;;;5.40;;
68608;SDS011;55581;46.718;7.690;2023-09-30T09:10:44;14.07;;;5.47;;
68608;SDS011;55581;46.718;7.690;2023-09-30T09:13:18;13.40;;;5.40;;
68608;SDS011;55581;46.718;7.690;2023-09-30T09:15:44;12.90;;;5.20;;
68608;SDS011;55581;46.718;7.690;2023-09-30T09:18:09;13.73;;;5.25;;
68608;SDS011;55581;46.718;7.690;2023-09-30T09:20:36;12.20;;;5.13;;
68608;SDS011;55581;46.718;7.690;2023-09-30T09:23:01;14.98;;;5.88;;
68608;SDS011;55581;46.718;7.690;2023-09-30T09:25:34;15.20;;;5.33;;
68608;SDS011;55581;46.718;7.690;2023-09-30T09:28:03;16.45;;;5.25;;
68608;SDS011;55581;46.718;7.690;2023-09-30T09:30:29;12.70;;;5.22;;
68608;SDS011;55581;46.718;7.690;2023-09-30T09:32:58;15.00;;;5.77;;
68608;SDS011;55581;46.718;7.690;2023-09-30T09:35:30;14.02;;;5.72;;
68608;SDS011;55581;46.718;7.690;2023-09-30T09:38:04;16.07;;;5.70;;
68608;SDS011;55581;46.718;7.690;2023-09-30T09:40:32;13.43;;;4.93;;
68608;SDS011;55581;46.718;7.690;2023-09-30T09:42:59;18.83;;;5.43;;
68608;SDS011;55581;46.718;7.690;2023-09-30T09:52:41;14.60;;;5.80;;
68608;SDS011;55581;46.718;7.690;2023-09-30T09:55:08;17.35;;;5.88;;
68608;SDS011;55581;46.718;7.690;2023-09-30T09:57:36;17.08;;;6.07;;
68608;SDS011;55581;46.718;7.690;2023-09-30T10:00:03;17.38;;;6.75;;
68608;SDS011;55581;46.718;7.690;2023-09-30T10:02:33;19.23;;;6.82;;
68608;SDS011;55581;46.718;7.690;2023-09-30T10:05:00;15.37;;;6.33;;
68608;SDS011;55581;46.718;7.690;2023-09-30T10:07:35;13.15;;;5.50;;
68608;SDS011;55581;46.718;7.690;2023-09-30T10:10:05;16.63;;;6.28;;
68608;SDS011;55581;46.718;7.690;2023-09-30T10:12:38;17.60;;;6.40;;
68608;SDS011;55581;46.718;7.690;2023-09-30T10:18:04;17.10;;;6.22;;
68608;SDS011;55581;46.718;7.690;2023-09-30T10:20:37;14.80;;;6.45;;
68608;SDS011;55581;46.718;7.690;2023-09-30T10:23:24;16.85;;;6.15;;
68608;SDS011;55581;46.718;7.690;2023-09-30T10:28:39;17.13;;;6.43;;
68608;SDS011;55581;46.718;7.690;2023-09-30T10:31:10;14.38;;;6.18;;
68608;SDS011;55581;46.718;7.690;2023-09-30T10:39:04;14.05;;;5.65;;
68608;SDS011;55581;46.718;7.690;2023-09-30T10:46:53;15.30;;;5.60;;
68608;SDS011;55581;46.718;7.690;2023-09-30T10:54:24;15.48;;;5.63;;
68608;SDS011;55581;46.718;7.690;2023-09-30T10:56:55;15.02;;;5.68;;
68608;SDS011;55581;46.718;7.690;2023-09-30T10:59:24;13.77;;;5.97;;
68608;SDS011;55581;46.718;7.690;2023-09-30T11:01:51;17.92;;;6.28;;
68608;SDS011;55581;46.718;7.690;2023-09-30T11:04:17;14.43;;;5.60;;
68608;SDS011;55581;46.718;7.690;2023-09-30T11:06:44;17.48;;;6.35;;
68608;SDS011;55581;46.718;7.690;2023-09-30T11:09:10;13.70;;;5.63;;
68608;SDS011;55581;46.718;7.690;2023-09-30T11:11:47;16.43;;;6.10;;
68608;SDS011;55581;46.718;7.690;2023-09-30T11:16:46;14.40;;;5.22;;
68608;SDS011;55581;46.718;7.690;2023-09-30T11:19:14;17.10;;;5.43;;
68608;SDS011;55581;46.718;7.690;2023-09-30T11:21:45;14.57;;;5.93;;
68608;SDS011;55581;46.718;7.690;2023-09-30T11:24:13;16.23;;;6.57;;
68608;SDS011;55581;46.718;7.690;2023-09-30T11:26:39;18.80;;;6.53;;
68608;SDS011;55581;46.718;7.690;2023-09-30T11:31:36;15.97;;;6.30;;
68608;SDS011;55581;46.718;7.690;2023-09-30T11:34:05;14.45;;;5.50;;
68608;SDS011;55581;46.718;7.690;2023-09-30T11:36:34;17.20;;;6.03;;
68608;SDS011;55581;46.718;7.690;2023-09-30T11:39:00;21.85;;;6.22;;
68608;SDS011;55581;46.718;7.690;2023-09-30T11:49:25;15.95;;;6.13;;
68608;SDS011;55581;46.718;7.690;2023-09-30T11:51:51;14.18;;;5.60;;
68608;SDS011;55581;46.718;7.690;2023-09-30T11:54:17;14.83;;;6.27;;
68608;SDS011;55581;46.718;7.690;2023-09-30T11:56:43;15.60;;;6.23;;
68608;SDS011;55581;46.718;7.690;2023-09-30T11:59:08;15.23;;;6.35;;
68608;SDS011;55581;46.718;7.690;2023-09-30T12:01:39;17.48;;;6.07;;
68608;SDS011;55581;46.718;7.690;2023-09-30T12:04:05;14.67;;;5.73;;
68608;SDS011;55581;46.718;7.690;2023-09-30T12:06:31;13.23;;;5.47;;
68608;SDS011;55581;46.718;7.690;2023-09-30T12:08:59;14.35;;;5.57;;
68608;SDS011;55581;46.718;7.690;2023-09-30T12:11:24;15.93;;;5.80;;
68608;SDS011;55581;46.718;7.690;2023-09-30T12:13:50;15.88;;;5.70;;
68608;SDS011;55581;46.718;7.690;2023-09-30T12:16:17;17.17;;;6.53;;
68608;SDS011;55581;46.718;7.690;2023-09-30T12:18:46;14.00;;;5.75;;
68608;SDS011;55581;46.718;7.690;2023-09-30T12:21:11;13.13;;;4.90;;
68608;SDS011;55581;46.718;7.690;2023-09-30T12:23:44;14.70;;;4.97;;
68608;SDS011;55581;46.718;7.690;2023-09-30T12:26:11;13.23;;;5.45;;
68608;SDS011;55581;46.718;7.690;2023-09-30T12:28:37;15.57;;;5.57;;
68608;SDS011;55581;46.718;7.690;2023-09-30T12:31:02;12.77;;;5.13;;
68608;SDS011;55581;46.718;7.690;2023-09-30T12:33:29;13.25;;;5.30;;
68608;SDS011;55581;46.718;7.690;2023-09-30T12:35:55;11.65;;;5.10;;
68608;SDS011;55581;46.718;7.690;2023-09-30T12:38:22;15.47;;;5.90;;
68608;SDS011;55581;46.718;7.690;2023-09-30T12:40:47;16.10;;;4.93;;
68608;SDS011;55581;46.718;7.690;2023-09-30T12:43:15;11.35;;;5.03;;
68608;SDS011;55581;46.718;7.690;2023-09-30T12:45:40;12.57;;;5.13;;
68608;SDS011;55581;46.718;7.690;2023-09-30T12:48:05;13.70;;;5.03;;
68608;SDS011;55581;46.718;7.690;2023-09-30T12:50:32;12.00;;;4.80;;
68608;SDS011;55581;46.718;7.690;2023-09-30T12:52:57;13.60;;;5.00;;
68608;SDS011;55581;46.718;7.690;2023-09-30T12:55:24;14.43;;;5.05;;
68608;SDS011;55581;46.718;7.690;2023-09-30T12:57:52;11.93;;;4.45;;
68608;SDS011;55581;46.718;7.690;2023-09-30T13:00:18;12.53;;;4.73;;
68608;SDS011;55581;46.718;7.690;2023-09-30T13:02:44;13.27;;;4.57;;
68608;SDS011;55581;46.718;7.690;2023-09-30T13:05:09;10.60;;;4.50;;
68608;SDS011;55581;46.718;7.690;2023-09-30T13:07:35;15.47;;;5.13;;
68608;SDS011;55581;46.718;7.690;2023-09-30T13:10:03;14.63;;;4.90;;
68608;SDS011;55581;46.718;7.690;2023-09-30T13:12:30;11.53;;;4.63;;
68608;SDS011;55581;46.718;7.690;2023-09-30T13:14:58;13.05;;;4.78;;
68608;SDS011;55581;46.718;7.690;2023-09-30T13:17:23;12.32;;;4.90;;
68608;SDS011;55581;46.718;7.690;2023-09-30T13:19:52;13.45;;;5.00;;
68608;SDS011;55581;46.718;7.690;2023-09-30T13:22:17;11.30;;;4.73;;
68608;SDS011;55581;46.718;7.690;2023-09-30T13:24:43;14.40;;;5.00;;
68608;SDS011;55581;46.718;7.690;2023-09-30T13:27:09;17.13;;;5.17;;
68608;SDS011;55581;46.718;7.690;2023-09-30T13:29:34;12.88;;;4.65;;
68608;SDS011;55581;46.718;7.690;2023-09-30T13:32:00;14.40;;;5.53;;
68608;SDS011;55581;46.718;7.690;2023-09-30T13:34:26;14.07;;;4.97;;
68608;SDS011;55581;46.718;7.690;2023-09-30T13:36:52;13.70;;;4.93;;
68608;SDS011;55581;46.718;7.690;2023-09-30T13:39:22;16.30;;;4.65;;
68608;SDS011;55581;46.718;7.690;2023-09-30T13:41:49;15.45;;;4.88;;
68608;SDS011;55581;46.718;7.690;2023-09-30T13:44:14;15.17;;;5.47;;
68608;SDS011;55581;46.718;7.690;2023-09-30T13:46:40;13.38;;;5.43;;
68608;SDS011;55581;46.718;7.690;2023-09-30T13:49:07;12.90;;;4.78;;
68608;SDS011;55581;46.718;7.690;2023-09-30T13:51:33;13.13;;;4.57;;
68608;SDS011;55581;46.718;7.690;2023-09-30T13:53:58;16.42;;;5.35;;
68608;SDS011;55581;46.718;7.690;2023-09-30T13:56:26;15.40;;;5.10;;
68608;SDS011;55581;46.718;7.690;2023-09-30T13:58:55;12.37;;;4.80;;
68608;SDS011;55581;46.718;7.690;2023-09-30T14:01:25;11.80;;;4.90;;
68608;SDS011;55581;46.718;7.690;2023-09-30T14:03:50;12.60;;;4.88;;
68608;SDS011;55581;46.718;7.690;2023-09-30T14:06:20;13.52;;;5.53;;
68608;SDS011;55581;46.718;7.690;2023-09-30T14:08:45;13.50;;;4.93;;
68608;SDS011;55581;46.718;7.690;2023-09-30T14:11:11;13.97;;;4.90;;
68608;SDS011;55581;46.718;7.690;2023-09-30T14:13:37;12.52;;;4.80;;
68608;SDS011;55581;46.718;7.690;2023-09-30T14:16:05;12.20;;;4.45;;
68608;SDS011;55581;46.718;7.690;2023-09-30T14:18:31;10.23;;;4.35;;
68608;SDS011;55581;46.718;7.690;2023-09-30T14:21:01;11.73;;;4.40;;
68608;SDS011;55581;46.718;7.690;2023-09-30T14:23:27;12.50;;;4.80;;
68608;SDS011;55581;46.718;7.690;2023-09-30T14:25:54;14.35;;;4.97;;
68608;SDS011;55581;46.718;7.690;2023-09-30T14:28:24;12.73;;;4.68;;
68608;SDS011;55581;46.718;7.690;2023-09-30T14:30:50;15.63;;;4.60;;
68608;SDS011;55581;46.718;7.690;2023-09-30T14:33:16;14.23;;;4.43;;
68608;SDS011;55581;46.718;7.690;2023-09-30T14:35:42;11.90;;;4.97;;
68608;SDS011;55581;46.718;7.690;2023-09-30T14:38:09;13.13;;;4.37;;
68608;SDS011;55581;46.718;7.690;2023-09-30T14:40:39;10.48;;;4.28;;
68608;SDS011;55581;46.718;7.690;2023-09-30T14:43:06;11.23;;;4.18;;
68608;SDS011;55581;46.718;7.690;2023-09-30T14:45:36;11.88;;;4.32;;
68608;SDS011;55581;46.718;7.690;2023-09-30T14:48:02;14.30;;;5.15;;
68608;SDS011;55581;46.718;7.690;2023-09-30T14:50:28;11.93;;;4.27;;
68608;SDS011;55581;46.718;7.690;2023-09-30T14:52:55;12.05;;;4.30;;
68608;SDS011;55581;46.718;7.690;2023-09-30T14:55:21;11.93;;;4.43;;
68608;SDS011;55581;46.718;7.690;2023-09-30T14:57:49;14.05;;;4.72;;
68608;SDS011;55581;46.718;7.690;2023-09-30T15:00:14;12.03;;;3.93;;
68608;SDS011;55581;46.718;7.690;2023-09-30T15:02:40;13.48;;;5.05;;
68608;SDS011;55581;46.718;7.690;2023-09-30T15:05:06;12.37;;;5.17;;
68608;SDS011;55581;46.718;7.690;2023-09-30T15:07:31;13.30;;;4.13;;
68608;SDS011;55581;46.718;7.690;2023-09-30T15:09:57;13.90;;;4.87;;
68608;SDS011;55581;46.718;7.690;2023-09-30T15:12:23;11.52;;;4.65;;
68608;SDS011;55581;46.718;7.690;2023-09-30T15:14:48;12.77;;;4.77;;
68608;SDS011;55581;46.718;7.690;2023-09-30T15:17:14;13.03;;;4.57;;